sensor_id;sensor_type;location;lat;lon;timestamp;pressure;altitude;pressure_sealevel;temperature
70389;BMP280;58659;49.050;8.530;2023-02-01T00:02:01;100498.88;;;4.37
70389;BMP280;58659;49.050;8.530;2023-02-01T00:04:27;100494.09;;;4.31
70389;BMP280;58659;49.050;8.530;2023-02-01T00:06:53;100486.72;;;4.38
70389;BMP280;58659;49.050;8.530;2023-02-01T00:09:18;100484.41;;;4.36
70389;BMP280;58659;49.050;8.530;2023-02-01T00:11:43;100477.63;;;4.40
70389;BMP280;58659;49.050;8.530;2023-02-01T00:14:09;100484.63;;;4.40
70389;BMP280;58659;49.050;8.530;2023-02-01T00:19:05;100470.31;;;4.42
70389;BMP280;58659;49.050;8.530;2023-02-01T00:21:31;100466.00;;;4.38
70389;BMP280;58659;49.050;8.530;2023-02-01T00:23:57;100466.78;;;4.38
70389;BMP280;58659;49.050;8.530;2023-02-01T00:26:25;100472.06;;;4.33
70389;BMP280;58659;49.050;8.530;2023-02-01T00:28:52;100473.91;;;4.33
70389;BMP280;58659;49.050;8.530;2023-02-01T00:31:18;100473.31;;;4.36
70389;BMP280;58659;49.050;8.530;2023-02-01T00:33:46;100475.59;;;4.37
70389;BMP280;58659;49.050;8.530;2023-02-01T00:36:11;100486.91;;;4.41
70389;BMP280;58659;49.050;8.530;2023-02-01T00:38:37;100484.25;;;4.46
70389;BMP280;58659;49.050;8.530;2023-02-01T00:41:06;100487.78;;;4.50
70389;BMP280;58659;49.050;8.530;2023-02-01T00:43:32;100489.31;;;4.51
70389;BMP280;58659;49.050;8.530;2023-02-01T00:45:58;100492.47;;;4.48
70389;BMP280;58659;49.050;8.530;2023-02-01T00:48:23;100489.88;;;4.48
70389;BMP280;58659;49.050;8.530;2023-02-01T00:50:49;100488.84;;;4.49
70389;BMP280;58659;49.050;8.530;2023-02-01T00:53:14;100489.03;;;4.53
70389;BMP280;58659;49.050;8.530;2023-02-01T00:55:39;100480.59;;;4.47
70389;BMP280;58659;49.050;8.530;2023-02-01T00:58:05;100477.16;;;4.52
70389;BMP280;58659;49.050;8.530;2023-02-01T01:00:32;100479.63;;;4.57
70389;BMP280;58659;49.050;8.530;2023-02-01T01:02:57;100486.03;;;4.59
70389;BMP280;58659;49.050;8.530;2023-02-01T01:05:22;100492.47;;;4.62
70389;BMP280;58659;49.050;8.530;2023-02-01T01:07:48;100504.16;;;4.59
70389;BMP280;58659;49.050;8.530;2023-02-01T01:10:14;100496.38;;;4.59
70389;BMP280;58659;49.050;8.530;2023-02-01T01:12:39;100497.66;;;4.62
70389;BMP280;58659;49.050;8.530;2023-02-01T01:15:06;100494.09;;;4.58
70389;BMP280;58659;49.050;8.530;2023-02-01T01:17:32;100492.66;;;4.65
70389;BMP280;58659;49.050;8.530;2023-02-01T01:19:57;100492.19;;;4.63
70389;BMP280;58659;49.050;8.530;2023-02-01T01:22:22;100494.78;;;4.63
70389;BMP280;58659;49.050;8.530;2023-02-01T01:24:48;100481.06;;;4.63
70389;BMP280;58659;49.050;8.530;2023-02-01T01:27:13;100480.31;;;4.62
70389;BMP280;58659;49.050;8.530;2023-02-01T01:29:39;100474.19;;;4.58
70389;BMP280;58659;49.050;8.530;2023-02-01T01:32:04;100471.69;;;4.53
70389;BMP280;58659;49.050;8.530;2023-02-01T01:34:29;100461.03;;;4.55
70389;BMP280;58659;49.050;8.530;2023-02-01T01:36:54;100468.31;;;4.53
70389;BMP280;58659;49.050;8.530;2023-02-01T01:39:20;100474.19;;;4.58
70389;BMP280;58659;49.050;8.530;2023-02-01T01:41:45;100464.88;;;4.57
70389;BMP280;58659;49.050;8.530;2023-02-01T01:47:14;100472.81;;;4.61
70389;BMP280;58659;49.050;8.530;2023-02-01T01:52:06;100480.22;;;4.67
70389;BMP280;58659;49.050;8.530;2023-02-01T01:54:37;100472.94;;;4.69
70389;BMP280;58659;49.050;8.530;2023-02-01T01:57:14;100478.66;;;4.66
70389;BMP280;58659;49.050;8.530;2023-02-01T01:59:43;100468.53;;;4.70
70389;BMP280;58659;49.050;8.530;2023-02-01T02:02:11;100468.91;;;4.63
70389;BMP280;58659;49.050;8.530;2023-02-01T02:04:37;100472.16;;;4.69
70389;BMP280;58659;49.050;8.530;2023-02-01T02:07:05;100473.41;;;4.71
70389;BMP280;58659;49.050;8.530;2023-02-01T02:09:32;100470.50;;;4.73
70389;BMP280;58659;49.050;8.530;2023-02-01T02:11:58;100465.50;;;4.77
70389;BMP280;58659;49.050;8.530;2023-02-01T02:14:25;100462.91;;;4.77
70389;BMP280;58659;49.050;8.530;2023-02-01T02:22:48;100460.63;;;4.75
70389;BMP280;58659;49.050;8.530;2023-02-01T02:25:46;100456.91;;;4.81
70389;BMP280;58659;49.050;8.530;2023-02-01T02:47:15;100434.94;;;4.79
70389;BMP280;58659;49.050;8.530;2023-02-01T02:52:51;100445.78;;;4.81
70389;BMP280;58659;49.050;8.530;2023-02-01T02:55:39;100445.88;;;4.76
70389;BMP280;58659;49.050;8.530;2023-02-01T02:58:07;100434.44;;;4.77
70389;BMP280;58659;49.050;8.530;2023-02-01T03:00:51;100443.94;;;4.81
70389;BMP280;58659;49.050;8.530;2023-02-01T03:03:39;100439.53;;;4.82
70389;BMP280;58659;49.050;8.530;2023-02-01T03:06:24;100434.38;;;4.82
70389;BMP280;58659;49.050;8.530;2023-02-01T03:08:51;100434.25;;;4.87
70389;BMP280;58659;49.050;8.530;2023-02-01T03:11:22;100430.69;;;4.83
70389;BMP280;58659;49.050;8.530;2023-02-01T03:13:53;100428.41;;;4.81
70389;BMP280;58659;49.050;8.530;2023-02-01T03:19:02;100412.69;;;4.78
70389;BMP280;58659;49.050;8.530;2023-02-01T03:21:35;100418.06;;;4.81
70389;BMP280;58659;49.050;8.530;2023-02-01T03:24:06;100415.75;;;4.80
70389;BMP280;58659;49.050;8.530;2023-02-01T03:26:36;100420.44;;;4.78
70389;BMP280;58659;49.050;8.530;2023-02-01T03:29:16;100398.69;;;4.79
70389;BMP280;58659;49.050;8.530;2023-02-01T03:31:42;100407.03;;;4.76
70389;BMP280;58659;49.050;8.530;2023-02-01T03:34:07;100394.97;;;4.71
70389;BMP280;58659;49.050;8.530;2023-02-01T03:39:32;100398.34;;;4.71
70389;BMP280;58659;49.050;8.530;2023-02-01T03:42:04;100395.75;;;4.71
70389;BMP280;58659;49.050;8.530;2023-02-01T03:44:41;100400.47;;;4.69
70389;BMP280;58659;49.050;8.530;2023-02-01T03:49:45;100385.84;;;4.73
70389;BMP280;58659;49.050;8.530;2023-02-01T03:52:18;100378.22;;;4.68
70389;BMP280;58659;49.050;8.530;2023-02-01T03:54:46;100372.91;;;4.73
70389;BMP280;58659;49.050;8.530;2023-02-01T03:57:14;100391.63;;;4.70
70389;BMP280;58659;49.050;8.530;2023-02-01T03:59:42;100397.56;;;4.71
70389;BMP280;58659;49.050;8.530;2023-02-01T04:02:09;100397.28;;;4.72
70389;BMP280;58659;49.050;8.530;2023-02-01T04:04:37;100402.75;;;4.71
70389;BMP280;58659;49.050;8.530;2023-02-01T04:07:02;100423.63;;;4.74
70389;BMP280;58659;49.050;8.530;2023-02-01T04:09:27;100421.50;;;4.77
70389;BMP280;58659;49.050;8.530;2023-02-01T04:14:18;100421.28;;;4.64
70389;BMP280;58659;49.050;8.530;2023-02-01T04:16:43;100407.63;;;4.59
70389;BMP280;58659;49.050;8.530;2023-02-01T04:19:08;100393.47;;;4.56
70389;BMP280;58659;49.050;8.530;2023-02-01T04:21:34;100361.97;;;4.54
70389;BMP280;58659;49.050;8.530;2023-02-01T04:23:59;100368.63;;;4.55
70389;BMP280;58659;49.050;8.530;2023-02-01T04:26:24;100380.53;;;4.56
70389;BMP280;58659;49.050;8.530;2023-02-01T04:28:50;100373.34;;;4.53
70389;BMP280;58659;49.050;8.530;2023-02-01T04:31:17;100373.81;;;4.55
70389;BMP280;58659;49.050;8.530;2023-02-01T04:33:43;100369.25;;;4.52
70389;BMP280;58659;49.050;8.530;2023-02-01T04:36:08;100370.19;;;4.56
70389;BMP280;58659;49.050;8.530;2023-02-01T04:38:34;100362.41;;;4.56
70389;BMP280;58659;49.050;8.530;2023-02-01T04:40:59;100347.47;;;4.53
70389;BMP280;58659;49.050;8.530;2023-02-01T04:43:25;100321.81;;;4.43
70389;BMP280;58659;49.050;8.530;2023-02-01T04:45:51;100285.56;;;4.35
70389;BMP280;58659;49.050;8.530;2023-02-01T04:48:19;100268.91;;;4.27
70389;BMP280;58659;49.050;8.530;2023-02-01T04:50:46;100250.91;;;4.22
70389;BMP280;58659;49.050;8.530;2023-02-01T04:53:15;100221.47;;;4.18
70389;BMP280;58659;49.050;8.530;2023-02-01T04:55:41;100210.84;;;4.19
70389;BMP280;58659;49.050;8.530;2023-02-01T04:58:07;100196.22;;;4.15
70389;BMP280;58659;49.050;8.530;2023-02-01T05:00:32;100201.84;;;4.17
70389;BMP280;58659;49.050;8.530;2023-02-01T05:02:58;100195.16;;;4.16
70389;BMP280;58659;49.050;8.530;2023-02-01T05:05:23;100204.91;;;4.19
70389;BMP280;58659;49.050;8.530;2023-02-01T05:07:48;100206.16;;;4.21
70389;BMP280;58659;49.050;8.530;2023-02-01T05:10:14;100205.84;;;4.23
70389;BMP280;58659;49.050;8.530;2023-02-01T05:12:39;100217.94;;;4.27
70389;BMP280;58659;49.050;8.530;2023-02-01T05:15:23;100246.56;;;4.31
70389;BMP280;58659;49.050;8.530;2023-02-01T05:17:49;100270.19;;;4.38
70389;BMP280;58659;49.050;8.530;2023-02-01T05:20:14;100273.81;;;4.37
70389;BMP280;58659;49.050;8.530;2023-02-01T05:22:41;100290.28;;;4.41
70389;BMP280;58659;49.050;8.530;2023-02-01T05:25:07;100308.13;;;4.43
70389;BMP280;58659;49.050;8.530;2023-02-01T05:27:32;100299.13;;;4.40
70389;BMP280;58659;49.050;8.530;2023-02-01T05:29:57;100292.56;;;4.34
70389;BMP280;58659;49.050;8.530;2023-02-01T05:32:23;100312.16;;;4.35
70389;BMP280;58659;49.050;8.530;2023-02-01T05:34:48;100315.22;;;4.37
70389;BMP280;58659;49.050;8.530;2023-02-01T05:37:13;100302.00;;;4.39
70389;BMP280;58659;49.050;8.530;2023-02-01T05:39:38;100310.53;;;4.39
70389;BMP280;58659;49.050;8.530;2023-02-01T05:42:04;100322.41;;;4.40
70389;BMP280;58659;49.050;8.530;2023-02-01T05:44:29;100328.03;;;4.42
70389;BMP280;58659;49.050;8.530;2023-02-01T05:46:54;100320.28;;;4.42
70389;BMP280;58659;49.050;8.530;2023-02-01T05:49:20;100321.16;;;4.38
70389;BMP280;58659;49.050;8.530;2023-02-01T05:51:45;100305.03;;;4.41
70389;BMP280;58659;49.050;8.530;2023-02-01T05:54:10;100316.16;;;4.41
70389;BMP280;58659;49.050;8.530;2023-02-01T05:56:36;100312.41;;;4.47
70389;BMP280;58659;49.050;8.530;2023-02-01T05:59:01;100316.75;;;4.52
70389;BMP280;58659;49.050;8.530;2023-02-01T06:01:26;100312.91;;;4.49
70389;BMP280;58659;49.050;8.530;2023-02-01T06:03:52;100299.31;;;4.44
70389;BMP280;58659;49.050;8.530;2023-02-01T06:06:17;100302.56;;;4.49
70389;BMP280;58659;49.050;8.530;2023-02-01T06:08:44;100296.44;;;4.45
70389;BMP280;58659;49.050;8.530;2023-02-01T06:11:09;100286.66;;;4.42
70389;BMP280;58659;49.050;8.530;2023-02-01T06:13:34;100287.41;;;4.43
70389;BMP280;58659;49.050;8.530;2023-02-01T06:16:01;100299.03;;;4.45
70389;BMP280;58659;49.050;8.530;2023-02-01T06:18:27;100289.72;;;4.44
70389;BMP280;58659;49.050;8.530;2023-02-01T06:20:54;100272.09;;;4.46
70389;BMP280;58659;49.050;8.530;2023-02-01T06:23:19;100269.78;;;4.45
70389;BMP280;58659;49.050;8.530;2023-02-01T06:25:57;100278.78;;;4.47
70389;BMP280;58659;49.050;8.530;2023-02-01T06:28:23;100261.94;;;4.36
70389;BMP280;58659;49.050;8.530;2023-02-01T06:30:48;100231.25;;;4.35
70389;BMP280;58659;49.050;8.530;2023-02-01T06:33:14;100208.38;;;4.37
70389;BMP280;58659;49.050;8.530;2023-02-01T06:35:42;100214.66;;;4.36
70389;BMP280;58659;49.050;8.530;2023-02-01T06:38:10;100210.84;;;4.33
70389;BMP280;58659;49.050;8.530;2023-02-01T06:40:36;100213.88;;;4.35
70389;BMP280;58659;49.050;8.530;2023-02-01T06:43:01;100230.47;;;4.34
70389;BMP280;58659;49.050;8.530;2023-02-01T06:45:27;100236.06;;;4.36
70389;BMP280;58659;49.050;8.530;2023-02-01T06:47:52;100252.38;;;4.37
70389;BMP280;58659;49.050;8.530;2023-02-01T06:50:17;100258.31;;;4.37
70389;BMP280;58659;49.050;8.530;2023-02-01T06:52:42;100279.00;;;4.37
70389;BMP280;58659;49.050;8.530;2023-02-01T06:55:08;100283.41;;;4.37
70389;BMP280;58659;49.050;8.530;2023-02-01T06:57:33;100277.66;;;4.40
70389;BMP280;58659;49.050;8.530;2023-02-01T07:00:01;100282.84;;;4.40
70389;BMP280;58659;49.050;8.530;2023-02-01T07:02:27;100288.56;;;4.37
70389;BMP280;58659;49.050;8.530;2023-02-01T07:04:53;100304.41;;;4.35
70389;BMP280;58659;49.050;8.530;2023-02-01T07:07:18;100325.00;;;4.40
70389;BMP280;58659;49.050;8.530;2023-02-01T07:09:45;100325.19;;;4.44
70389;BMP280;58659;49.050;8.530;2023-02-01T07:12:10;100321.34;;;4.41
70389;BMP280;58659;49.050;8.530;2023-02-01T07:14:35;100340.88;;;4.47
70389;BMP280;58659;49.050;8.530;2023-02-01T07:17:01;100331.88;;;4.45
70389;BMP280;58659;49.050;8.530;2023-02-01T07:19:26;100312.63;;;4.37
70389;BMP280;58659;49.050;8.530;2023-02-01T07:21:51;100291.47;;;4.35
70389;BMP280;58659;49.050;8.530;2023-02-01T07:24:16;100268.78;;;4.32
70389;BMP280;58659;49.050;8.530;2023-02-01T07:26:42;100262.56;;;4.33
70389;BMP280;58659;49.050;8.530;2023-02-01T07:29:07;100258.94;;;4.34
70389;BMP280;58659;49.050;8.530;2023-02-01T07:31:32;100261.94;;;4.36
70389;BMP280;58659;49.050;8.530;2023-02-01T07:33:58;100262.91;;;4.40
70389;BMP280;58659;49.050;8.530;2023-02-01T07:36:24;100277.84;;;4.43
70389;BMP280;58659;49.050;8.530;2023-02-01T07:38:49;100292.50;;;4.48
70389;BMP280;58659;49.050;8.530;2023-02-01T07:41:16;100296.63;;;4.49
70389;BMP280;58659;49.050;8.530;2023-02-01T07:43:42;100308.06;;;4.56
70389;BMP280;58659;49.050;8.530;2023-02-01T07:46:09;100313.84;;;4.53
70389;BMP280;58659;49.050;8.530;2023-02-01T07:48:35;100331.84;;;4.58
70389;BMP280;58659;49.050;8.530;2023-02-01T07:51:03;100327.63;;;4.62
70389;BMP280;58659;49.050;8.530;2023-02-01T07:53:30;100329.34;;;4.67
70389;BMP280;58659;49.050;8.530;2023-02-01T07:55:56;100326.47;;;4.68
70389;BMP280;58659;49.050;8.530;2023-02-01T07:58:22;100315.06;;;4.69
70389;BMP280;58659;49.050;8.530;2023-02-01T08:00:47;100319.47;;;4.69
70389;BMP280;58659;49.050;8.530;2023-02-01T08:03:31;100329.94;;;4.64
70389;BMP280;58659;49.050;8.530;2023-02-01T08:05:57;100347.50;;;4.76
70389;BMP280;58659;49.050;8.530;2023-02-01T08:08:22;100356.78;;;4.77
70389;BMP280;58659;49.050;8.530;2023-02-01T08:10:48;100368.56;;;4.83
70389;BMP280;58659;49.050;8.530;2023-02-01T08:13:13;100388.72;;;4.86
70389;BMP280;58659;49.050;8.530;2023-02-01T08:15:39;100400.47;;;4.92
70389;BMP280;58659;49.050;8.530;2023-02-01T08:18:05;100416.50;;;4.94
70389;BMP280;58659;49.050;8.530;2023-02-01T08:20:31;100426.75;;;4.99
70389;BMP280;58659;49.050;8.530;2023-02-01T08:22:56;100431.03;;;5.03
70389;BMP280;58659;49.050;8.530;2023-02-01T08:25:23;100446.66;;;5.12
70389;BMP280;58659;49.050;8.530;2023-02-01T08:27:48;100449.81;;;5.09
70389;BMP280;58659;49.050;8.530;2023-02-01T08:30:14;100449.81;;;5.09
70389;BMP280;58659;49.050;8.530;2023-02-01T08:32:40;100448.25;;;5.08
70389;BMP280;58659;49.050;8.530;2023-02-01T08:35:06;100462.31;;;5.07
70389;BMP280;58659;49.050;8.530;2023-02-01T08:37:34;100478.91;;;5.06
70389;BMP280;58659;49.050;8.530;2023-02-01T08:40:00;100470.66;;;5.04
70389;BMP280;58659;49.050;8.530;2023-02-01T08:42:26;100467.88;;;5.00
70389;BMP280;58659;49.050;8.530;2023-02-01T08:45:10;100459.91;;;4.97
70389;BMP280;58659;49.050;8.530;2023-02-01T08:47:35;100457.31;;;4.97
70389;BMP280;58659;49.050;8.530;2023-02-01T08:50:02;100453.94;;;4.88
70389;BMP280;58659;49.050;8.530;2023-02-01T08:52:27;100453.44;;;4.86
70389;BMP280;58659;49.050;8.530;2023-02-01T08:54:53;100434.44;;;4.77
70389;BMP280;58659;49.050;8.530;2023-02-01T08:57:18;100430.94;;;4.72
70389;BMP280;58659;49.050;8.530;2023-02-01T08:59:44;100415.50;;;4.67
70389;BMP280;58659;49.050;8.530;2023-02-01T09:02:14;100409.06;;;4.65
70389;BMP280;58659;49.050;8.530;2023-02-01T09:04:40;100383.41;;;4.68
70389;BMP280;58659;49.050;8.530;2023-02-01T09:07:06;100394.09;;;4.76
70389;BMP280;58659;49.050;8.530;2023-02-01T09:09:31;100404.63;;;4.79
70389;BMP280;58659;49.050;8.530;2023-02-01T09:11:56;100414.00;;;4.89
70389;BMP280;58659;49.050;8.530;2023-02-01T09:14:22;100431.91;;;4.99
70389;BMP280;58659;49.050;8.530;2023-02-01T09:16:47;100445.81;;;5.03
70389;BMP280;58659;49.050;8.530;2023-02-01T09:19:12;100453.16;;;5.09
70389;BMP280;58659;49.050;8.530;2023-02-01T09:21:38;100455.38;;;5.16
70389;BMP280;58659;49.050;8.530;2023-02-01T09:24:03;100464.91;;;5.29
70389;BMP280;58659;49.050;8.530;2023-02-01T09:26:29;100491.75;;;5.33
70389;BMP280;58659;49.050;8.530;2023-02-01T09:28:54;100498.47;;;5.34
70389;BMP280;58659;49.050;8.530;2023-02-01T09:31:19;100495.41;;;5.32
70389;BMP280;58659;49.050;8.530;2023-02-01T09:33:45;100501.25;;;5.38
70389;BMP280;58659;49.050;8.530;2023-02-01T09:36:10;100497.13;;;5.37
70389;BMP280;58659;49.050;8.530;2023-02-01T09:38:35;100504.34;;;5.40
70389;BMP280;58659;49.050;8.530;2023-02-01T09:41:06;100504.00;;;5.41
70389;BMP280;58659;49.050;8.530;2023-02-01T09:43:49;100512.13;;;5.48
70389;BMP280;58659;49.050;8.530;2023-02-01T09:46:22;100511.56;;;5.51
70389;BMP280;58659;49.050;8.530;2023-02-01T09:48:49;100538.44;;;5.55
70389;BMP280;58659;49.050;8.530;2023-02-01T09:51:22;100546.66;;;5.57
70389;BMP280;58659;49.050;8.530;2023-02-01T09:53:59;100531.63;;;5.46
70389;BMP280;58659;49.050;8.530;2023-02-01T09:56:34;100537.34;;;5.34
70389;BMP280;58659;49.050;8.530;2023-02-01T09:59:49;100528.44;;;5.27
70389;BMP280;58659;49.050;8.530;2023-02-01T10:02:20;100532.47;;;5.19
70389;BMP280;58659;49.050;8.530;2023-02-01T10:04:47;100532.19;;;5.21
70389;BMP280;58659;49.050;8.530;2023-02-01T10:07:19;100561.47;;;5.21
70389;BMP280;58659;49.050;8.530;2023-02-01T10:09:50;100564.94;;;5.16
70389;BMP280;58659;49.050;8.530;2023-02-01T10:12:54;100559.75;;;5.16
70389;BMP280;58659;49.050;8.530;2023-02-01T10:15:39;100569.50;;;5.19
70389;BMP280;58659;49.050;8.530;2023-02-01T10:18:36;100574.59;;;5.25
70389;BMP280;58659;49.050;8.530;2023-02-01T10:27:33;100593.44;;;5.52
70389;BMP280;58659;49.050;8.530;2023-02-01T10:29:35;100600.63;;;5.55
70389;BMP280;58659;49.050;8.530;2023-02-01T10:32:02;100606.28;;;5.57
70389;BMP280;58659;49.050;8.530;2023-02-01T10:34:31;100610.09;;;5.60
70389;BMP280;58659;49.050;8.530;2023-02-01T10:37:01;100611.06;;;5.64
70389;BMP280;58659;49.050;8.530;2023-02-01T10:39:32;100601.75;;;5.63
70389;BMP280;58659;49.050;8.530;2023-02-01T10:41:58;100608.38;;;5.69
70389;BMP280;58659;49.050;8.530;2023-02-01T10:44:27;100619.31;;;5.66
70389;BMP280;58659;49.050;8.530;2023-02-01T10:46:53;100619.13;;;5.62
70389;BMP280;58659;49.050;8.530;2023-02-01T10:49:40;100630.38;;;5.58
70389;BMP280;58659;49.050;8.530;2023-02-01T10:52:49;100641.69;;;5.62
70389;BMP280;58659;49.050;8.530;2023-02-01T10:54:54;100639.88;;;5.62
70389;BMP280;58659;49.050;8.530;2023-02-01T10:59:47;100633.69;;;5.72
70389;BMP280;58659;49.050;8.530;2023-02-01T11:02:32;100626.88;;;5.76
70389;BMP280;58659;49.050;8.530;2023-02-01T11:05:05;100628.09;;;5.79
70389;BMP280;58659;49.050;8.530;2023-02-01T11:07:31;100616.69;;;5.80
70389;BMP280;58659;49.050;8.530;2023-02-01T11:09:57;100626.00;;;5.81
70389;BMP280;58659;49.050;8.530;2023-02-01T11:12:38;100609.94;;;5.79
70389;BMP280;58659;49.050;8.530;2023-02-01T11:15:19;100610.78;;;5.88
70389;BMP280;58659;49.050;8.530;2023-02-01T11:17:47;100606.19;;;5.85
70389;BMP280;58659;49.050;8.530;2023-02-01T11:22:53;100586.22;;;5.85
70389;BMP280;58659;49.050;8.530;2023-02-01T11:25:19;100583.31;;;5.87
70389;BMP280;58659;49.050;8.530;2023-02-01T11:27:45;100578.13;;;5.87
70389;BMP280;58659;49.050;8.530;2023-02-01T11:30:16;100566.66;;;5.79
70389;BMP280;58659;49.050;8.530;2023-02-01T11:32:46;100564.44;;;5.86
70389;BMP280;58659;49.050;8.530;2023-02-01T11:35:20;100577.25;;;5.91
70389;BMP280;58659;49.050;8.530;2023-02-01T11:37:53;100570.84;;;5.89
70389;BMP280;58659;49.050;8.530;2023-02-01T11:43:15;100560.63;;;5.92
70389;BMP280;58659;49.050;8.530;2023-02-01T11:45:41;100547.94;;;5.91
70389;BMP280;58659;49.050;8.530;2023-02-01T11:48:18;100547.78;;;5.87
70389;BMP280;58659;49.050;8.530;2023-02-01T11:53:59;100545.00;;;6.06
70389;BMP280;58659;49.050;8.530;2023-02-01T11:56:42;100546.09;;;6.14
70389;BMP280;58659;49.050;8.530;2023-02-01T12:16:06;100558.63;;;6.12
70389;BMP280;58659;49.050;8.530;2023-02-01T12:18:52;100558.75;;;6.15
70389;BMP280;58659;49.050;8.530;2023-02-01T12:24:15;100584.38;;;6.08
70389;BMP280;58659;49.050;8.530;2023-02-01T12:26:53;100573.41;;;6.11
70389;BMP280;58659;49.050;8.530;2023-02-01T12:34:56;100587.53;;;6.27
70389;BMP280;58659;49.050;8.530;2023-02-01T12:37:44;100580.22;;;6.29
70389;BMP280;58659;49.050;8.530;2023-02-01T12:40:25;100582.34;;;6.27
70389;BMP280;58659;49.050;8.530;2023-02-01T12:43:07;100579.41;;;6.20
70389;BMP280;58659;49.050;8.530;2023-02-01T12:45:36;100565.19;;;6.18
70389;BMP280;58659;49.050;8.530;2023-02-01T12:48:43;100587.31;;;6.15
70389;BMP280;58659;49.050;8.530;2023-02-01T12:51:14;100574.97;;;6.12
70389;BMP280;58659;49.050;8.530;2023-02-01T12:53:48;100563.03;;;6.11
70389;BMP280;58659;49.050;8.530;2023-02-01T12:56:26;100584.13;;;6.18
70389;BMP280;58659;49.050;8.530;2023-02-01T12:58:54;100570.94;;;6.06
70389;BMP280;58659;49.050;8.530;2023-02-01T13:01:44;100568.81;;;6.08
70389;BMP280;58659;49.050;8.530;2023-02-01T13:04:25;100565.75;;;6.06
70389;BMP280;58659;49.050;8.530;2023-02-01T13:06:57;100550.97;;;6.06
70389;BMP280;58659;49.050;8.530;2023-02-01T13:09:38;100552.66;;;6.11
70389;BMP280;58659;49.050;8.530;2023-02-01T13:14:54;100538.84;;;6.02
70389;BMP280;58659;49.050;8.530;2023-02-01T13:17:25;100543.91;;;5.98
70389;BMP280;58659;49.050;8.530;2023-02-01T13:20:00;100535.94;;;5.95
70389;BMP280;58659;49.050;8.530;2023-02-01T13:22:49;100537.16;;;5.97
70389;BMP280;58659;49.050;8.530;2023-02-01T13:25:28;100537.94;;;5.98
70389;BMP280;58659;49.050;8.530;2023-02-01T13:27:56;100526.38;;;6.04
70389;BMP280;58659;49.050;8.530;2023-02-01T13:30:33;100529.25;;;6.02
70389;BMP280;58659;49.050;8.530;2023-02-01T13:33:13;100524.41;;;6.01
70389;BMP280;58659;49.050;8.530;2023-02-01T13:36:18;100522.88;;;6.08
70389;BMP280;58659;49.050;8.530;2023-02-01T13:39:26;100514.22;;;6.13
70389;BMP280;58659;49.050;8.530;2023-02-01T13:42:00;100506.09;;;6.06
70389;BMP280;58659;49.050;8.530;2023-02-01T13:47:20;100507.34;;;6.17
70389;BMP280;58659;49.050;8.530;2023-02-01T13:49:47;100511.72;;;6.08
70389;BMP280;58659;49.050;8.530;2023-02-01T13:52:45;100501.34;;;6.08
70389;BMP280;58659;49.050;8.530;2023-02-01T13:57:46;100506.44;;;6.13
70389;BMP280;58659;49.050;8.530;2023-02-01T14:00:32;100523.84;;;6.13
70389;BMP280;58659;49.050;8.530;2023-02-01T14:16:14;100548.75;;;6.22
70389;BMP280;58659;49.050;8.530;2023-02-01T14:21:31;100537.69;;;6.08
70389;BMP280;58659;49.050;8.530;2023-02-01T14:24:24;100535.41;;;6.06
70389;BMP280;58659;49.050;8.530;2023-02-01T14:26:48;100539.03;;;6.05
70389;BMP280;58659;49.050;8.530;2023-02-01T14:32:04;100547.28;;;6.07
70389;BMP280;58659;49.050;8.530;2023-02-01T14:37:22;100557.84;;;6.11
70389;BMP280;58659;49.050;8.530;2023-02-01T14:44:43;100562.00;;;6.21
70389;BMP280;58659;49.050;8.530;2023-02-01T14:55:14;100554.34;;;6.46
70389;BMP280;58659;49.050;8.530;2023-02-01T14:57:41;100569.91;;;6.46
70389;BMP280;58659;49.050;8.530;2023-02-01T15:00:18;100565.66;;;6.50
70389;BMP280;58659;49.050;8.530;2023-02-01T15:02:45;100563.66;;;6.47
70389;BMP280;58659;49.050;8.530;2023-02-01T15:05:32;100560.31;;;6.47
70389;BMP280;58659;49.050;8.530;2023-02-01T15:08:04;100567.59;;;6.45
70389;BMP280;58659;49.050;8.530;2023-02-01T15:10:32;100568.53;;;6.40
70389;BMP280;58659;49.050;8.530;2023-02-01T15:12:59;100563.63;;;6.39
70389;BMP280;58659;49.050;8.530;2023-02-01T15:15:25;100567.75;;;6.40
70389;BMP280;58659;49.050;8.530;2023-02-01T15:17:56;100562.84;;;6.38
70389;BMP280;58659;49.050;8.530;2023-02-01T15:20:32;100566.69;;;6.41
70389;BMP280;58659;49.050;8.530;2023-02-01T15:23:03;100565.31;;;6.43
70389;BMP280;58659;49.050;8.530;2023-02-01T15:25:34;100555.56;;;6.40
70389;BMP280;58659;49.050;8.530;2023-02-01T15:28:02;100562.69;;;6.43
70389;BMP280;58659;49.050;8.530;2023-02-01T15:30:30;100562.41;;;6.45
70389;BMP280;58659;49.050;8.530;2023-02-01T15:35:48;100571.13;;;6.40
70389;BMP280;58659;49.050;8.530;2023-02-01T15:43:27;100572.47;;;6.38
70389;BMP280;58659;49.050;8.530;2023-02-01T15:46:01;100579.97;;;6.39
70389;BMP280;58659;49.050;8.530;2023-02-01T15:48:44;100584.69;;;6.37
70389;BMP280;58659;49.050;8.530;2023-02-01T15:51:15;100585.16;;;6.39
70389;BMP280;58659;49.050;8.530;2023-02-01T15:53:52;100577.38;;;6.39
70389;BMP280;58659;49.050;8.530;2023-02-01T15:56:23;100575.06;;;6.38
70389;BMP280;58659;49.050;8.530;2023-02-01T15:58:53;100585.84;;;6.31
70389;BMP280;58659;49.050;8.530;2023-02-01T16:01:22;100579.16;;;6.30
70389;BMP280;58659;49.050;8.530;2023-02-01T16:03:48;100566.94;;;6.31
70389;BMP280;58659;49.050;8.530;2023-02-01T16:08:55;100567.88;;;6.35
70389;BMP280;58659;49.050;8.530;2023-02-01T16:11:26;100556.91;;;6.38
70389;BMP280;58659;49.050;8.530;2023-02-01T16:13:52;100571.53;;;6.34
70389;BMP280;58659;49.050;8.530;2023-02-01T16:16:18;100562.41;;;6.36
70389;BMP280;58659;49.050;8.530;2023-02-01T16:18:43;100553.09;;;6.35
70389;BMP280;58659;49.050;8.530;2023-02-01T16:21:09;100572.78;;;6.36
70389;BMP280;58659;49.050;8.530;2023-02-01T16:23:36;100577.78;;;6.33
70389;BMP280;58659;49.050;8.530;2023-02-01T16:26:02;100581.16;;;6.33
70389;BMP280;58659;49.050;8.530;2023-02-01T16:28:27;100592.28;;;6.34
70389;BMP280;58659;49.050;8.530;2023-02-01T16:30:53;100590.47;;;6.34
70389;BMP280;58659;49.050;8.530;2023-02-01T16:33:19;100593.56;;;6.36
70389;BMP280;58659;49.050;8.530;2023-02-01T16:35:47;100592.66;;;6.41
70389;BMP280;58659;49.050;8.530;2023-02-01T16:38:15;100597.06;;;6.40
70389;BMP280;58659;49.050;8.530;2023-02-01T16:40:44;100595.81;;;6.38
70389;BMP280;58659;49.050;8.530;2023-02-01T16:45:39;100607.47;;;6.40
70389;BMP280;58659;49.050;8.530;2023-02-01T16:48:06;100611.41;;;6.38